ADDS METAR Data INFO
IDs: Format: Raw Decoded Include TAF

Data at: 0151 UTC 17 Oct 2017

KDNL 170053Z AUTO 04006KT 10SM CLR 19/14 A3015 RMK AO2 SLP206 T01940144
KDNL 162353Z AUTO 04011G17KT 10SM CLR 20/15 A3011 RMK AO2 SLP193 T02000150 10267 20200 53035
KDNL 162253Z AUTO 04008KT 10SM CLR 21/16 A3007 RMK AO2 SLP179 T02110156
KDNL 162153Z AUTO 04012KT 10SM CLR 23/16 A3004 RMK AO2 SLP168 T02280161
KDNL 162053Z AUTO 02009KT 10SM SCT039 26/18 A3001 RMK AO2 SLP158 T02560178 55004
KDNL 161953Z AUTO 03008KT 10SM SCT022 SCT034 BKN050 25/19 A3000 RMK AO2 SLP154 T02500189
KDNL 161944Z AUTO 03010KT 10SM SCT022 BKN034 OVC050 25/19 A3000 RMK AO2 T02500189
KDNL 161937Z AUTO 03012KT 10SM BKN022 BKN033 BKN050 25/19 A3000 RMK AO2 T02500189
KDNL 161853Z AUTO 35008KT 10SM FEW021 FEW028 SCT041 26/19 A3000 RMK AO2 SLP155 T02610189
KDNL 161811Z AUTO 33006KT 10SM SCT022 BKN034 BKN065 26/19 A3001 RMK AO2 T02610189
KDNL 161753Z AUTO 33006KT 10SM BKN022 OVC034 26/19 A3002 RMK AO2 RAB09E23 SLP160 P0000 60000 T02560194 10261 20222 58006
KDNL 161741Z AUTO 34006KT 10SM BKN022 BKN032 25/19 A3003 RMK AO2 RAB09E23 P0000 T02500194
KDNL 161715Z AUTO 34004KT 10SM -RA SCT023 OVC035 25/20 A3003 RMK AO2 RAB09 P0000 T02500200
KDNL 161653Z AUTO 30004KT 10SM BKN020 BKN027 OVC036 25/19 A3004 RMK AO2 SLP168 T02500194
KDNL 161624Z AUTO 31005KT 10SM BKN018 BKN060 25/19 A3005 RMK AO2 T02500194
KDNL 161553Z AUTO 32006KT 10SM FEW070 SCT120 24/19 A3005 RMK AO2 SLP168 T02440194
KDNL 161453Z AUTO 28004KT 10SM FEW095 FEW120 26/19 A3004 RMK AO2 SLP167 T02560194 51007
KDNL 161353Z AUTO 24003KT 10SM FEW090 24/20 A3003 RMK AO2 SLP165 T02440200
KDNL 161253Z AUTO VRB03KT 10SM SCT033 BKN090 23/20 A3003 RMK AO2 SLP166 T02280200
KDNL 161224Z AUTO VRB03KT 10SM OVC032 22/19 A3003 RMK AO2 T02220194
KDNL 161201Z AUTO VRB03KT 10SM BKN028 BKN037 BKN050 22/19 A3002 RMK AO2 T02220194
KDNL 161153Z AUTO 00000KT 10SM SCT028 BKN048 22/19 A3002 RMK AO2 RAB06E44 SLP160 P0002 60002 70002 T02220194 10228 20222 51008
KDNL 161151Z AUTO 27003KT 10SM SCT028 BKN045 BKN090 22/19 A3002 RMK AO2 RAB06E44 P0002
KDNL 161135Z AUTO VRB04KT 9SM -RA BKN028 BKN034 OVC055 22/19 A3002 RMK AO2 RAB06 P0002 T02220194
KDNL 161053Z AUTO VRB03KT 10SM SCT045 BKN070 BKN110 23/19 A3001 RMK AO2 SLP155 T02280189
KDNL 160953Z AUTO VRB03KT 10SM SCT070 23/19 A3000 RMK AO2 SLP151 T02280194
KDNL 160853Z AUTO 20003KT 10SM CLR 22/19 A3000 RMK AO2 SLP152 T02220194 58012
KDNL 160753Z AUTO 21004KT 10SM CLR 22/19 A3001 RMK AO2 SLP156 T02220194
KDNL 160653Z AUTO 23004KT 10SM CLR 22/18 A3002 RMK AO2 SLP161 T02220183
KDNL 160553Z AUTO 21004KT 10SM CLR 23/18 A3003 RMK AO2 SLP164 T02280178 10261 20228 58010
KDNL 160453Z AUTO 00000KT 10SM SCT110 23/18 A3005 RMK AO2 SLP169 T02330183 403000183
KDNL 160353Z AUTO 25003KT 10SM BKN100 24/18 A3006 RMK AO2 SLP174 T02390183
KDNL 160253Z AUTO 19003KT 10SM FEW120 24/19 A3006 RMK AO2 SLP175 T02390194 53005
KDNL 160153Z AUTO 16003KT 10SM CLR 25/19 A3006 RMK AO2 SLP173 T02500194
KDNL 160053Z AUTO 16003KT 10SM CLR 25/20 A3005 RMK AO2 SLP172 T02500200
KDNL 152353Z AUTO 12004KT 10SM CLR 26/20 A3005 RMK AO2 SLP170 T02610200 10300 20261 56007
KDNL 152253Z AUTO 13004KT 10SM CLR 27/20 A3005 RMK AO2 SLP172 T02720200
KDNL 152153Z AUTO 13005KT 10SM CLR 29/19 A3006 RMK AO2 SLP172 T02890194
KDNL 152053Z AUTO 15004KT 10SM CLR 29/20 A3007 RMK AO2 SLP177 T02940200 56027
KDNL 151953Z AUTO 00000KT 10SM CLR 29/19 A3009 RMK AO2 SLP185 T02890194
KDNL 151853Z AUTO VRB04KT 10SM CLR 28/20 A3012 RMK AO2 SLP194 T02830200
KDNL 151753Z AUTO 04003KT 10SM FEW020 27/20 A3015 RMK AO2 SLP206 T02720200 10272 20200 58021
KDNL 151716Z AUTO 00000KT 9SM SCT012 25/20 A3017 RMK AO2 T02500200
KDNL 151700Z AUTO 00000KT 8SM BKN011 24/20 A3018 RMK AO2 T02440200
KDNL 151653Z AUTO VRB03KT 8SM BKN009 25/20 A3018 RMK AO2 CIG 008V013 SLP217 T02500200
KDNL 151642Z AUTO VRB03KT 7SM OVC008 24/20 A3019 RMK AO2 CIG 007V012 T02390200
KDNL 151627Z AUTO 00000KT 7SM OVC007 23/19 A3019 RMK AO2 T02330194
KDNL 151604Z AUTO 00000KT 7SM OVC006 23/19 A3020 RMK AO2 T02280194
KDNL 151553Z AUTO 00000KT 6SM HZ OVC005 22/19 A3020 RMK AO2 SLP224 T02220194
KDNL 151546Z AUTO 20003KT 6SM BR OVC005 22/19 A3021 RMK AO2 T02170194
KDNL 151453Z AUTO 23004KT 4SM BR OVC003 21/19 A3021 RMK AO2 SLP228 T02060194 50005
KDNL 151434Z AUTO 16004KT 4SM BR OVC002 21/20 A3022 RMK AO2 T02060200
KDNL 151406Z AUTO 18004KT 2SM BR OVC002 21/19 A3022 RMK AO2 T02060194
KDNL 151353Z AUTO 14003KT 1 1/4SM BR OVC003 21/20 A3022 RMK AO2 SLP228 T02060200